createdAt,value
2022-11-06T00:02:23.076Z,28.77
2022-11-06T00:04:50.378Z,31.40
2022-11-06T00:07:17.808Z,29.60
2022-11-06T00:09:44.996Z,28.50
2022-11-06T00:12:12.421Z,30.98
2022-11-06T00:14:39.622Z,30.75
2022-11-06T00:17:07.190Z,29.45
2022-11-06T00:19:34.353Z,30.13
2022-11-06T00:22:01.821Z,30.13
2022-11-06T00:24:29.005Z,32.22
2022-11-06T00:26:56.477Z,30.85
2022-11-06T00:29:23.813Z,31.42
2022-11-06T00:31:51.478Z,30.02
2022-11-06T00:34:18.625Z,31.50
2022-11-06T00:36:46.125Z,33.42
2022-11-06T00:39:13.343Z,29.85
2022-11-06T00:41:40.765Z,30.80
2022-11-06T00:44:10.313Z,29.27
2022-11-06T00:46:38.026Z,29.60
2022-11-06T00:49:05.508Z,29.95
2022-11-06T00:51:39.537Z,30.75
2022-11-06T00:54:09.722Z,30.05
2022-11-06T00:56:37.522Z,28.23
2022-11-06T00:59:10.115Z,28.08
2022-11-06T01:01:40.523Z,28.30
2022-11-06T01:04:12.524Z,28.00
2022-11-06T01:06:43.996Z,26.52
2022-11-06T01:09:14.290Z,24.15
2022-11-06T01:14:32.592Z,23.70
2022-11-06T01:17:00.091Z,27.13
2022-11-06T01:19:27.551Z,22.67
2022-11-06T01:21:55.380Z,23.95
2022-11-06T01:24:25.686Z,24.15
2022-11-06T01:27:24.272Z,22.33
2022-11-06T01:29:41.112Z,21.60
2022-11-06T01:32:09.049Z,22.23
2022-11-06T01:34:36.342Z,21.48
2022-11-06T01:37:03.756Z,20.40
2022-11-06T01:39:31.295Z,19.30
2022-11-06T01:41:59.061Z,19.33
2022-11-06T01:44:41.359Z,19.33
2022-11-06T01:47:25.717Z,18.20
2022-11-06T01:50:11.870Z,19.02
2022-11-06T01:52:39.648Z,17.38
2022-11-06T01:55:36.056Z,16.75
2022-11-06T01:58:07.691Z,17.55
2022-11-06T02:00:35.104Z,16.83
2022-11-06T02:03:03.271Z,16.60
2022-11-06T02:05:30.811Z,15.65
2022-11-06T02:08:00.569Z,16.25
2022-11-06T02:10:29.205Z,15.82
2022-11-06T02:13:17.706Z,17.15
2022-11-06T02:15:57.084Z,15.55
2022-11-06T02:18:43.031Z,16.30
2022-11-06T02:21:25.375Z,15.48
2022-11-06T02:24:08.639Z,16.02
2022-11-06T02:27:01.481Z,14.77
2022-11-06T02:29:38.763Z,15.35
2022-11-06T02:32:11.228Z,16.70
2022-11-06T02:34:40.660Z,14.85
2022-11-06T02:37:13.752Z,14.90
2022-11-06T02:39:44.566Z,14.40
2022-11-06T02:42:16.609Z,14.82
2022-11-06T02:44:47.105Z,13.82
2022-11-06T02:47:16.286Z,14.75
2022-11-06T02:49:49.707Z,14.93
2022-11-06T02:52:23.561Z,15.07
2022-11-06T02:55:11.334Z,14.40
2022-11-06T03:00:13.102Z,13.73
2022-11-06T03:02:47.594Z,14.52
2022-11-06T03:05:31.610Z,14.68
2022-11-06T03:08:07.845Z,14.23
2022-11-06T03:10:46.417Z,13.50
2022-11-06T03:13:24.894Z,12.13
2022-11-06T03:16:05.222Z,14.77
2022-11-06T03:18:52.506Z,13.05
2022-11-06T03:21:30.440Z,13.55
2022-11-06T03:24:16.331Z,14.15
2022-11-06T03:26:51.026Z,13.82
2022-11-06T03:29:41.412Z,13.93
2022-11-06T03:32:26.146Z,13.93
2022-11-06T03:35:24.406Z,14.85
2022-11-06T03:37:55.792Z,14.07
2022-11-06T03:40:26.329Z,13.25
2022-11-06T03:42:58.059Z,14.55
2022-11-06T03:45:27.922Z,14.38
2022-11-06T03:48:09.242Z,15.10
2022-11-06T03:50:50.565Z,14.02
2022-11-06T03:53:31.493Z,14.65
2022-11-06T03:56:06.490Z,13.90
2022-11-06T03:58:39.420Z,13.32
2022-11-06T04:01:10.999Z,16.15
2022-11-06T04:04:00.230Z,13.82
2022-11-06T04:06:31.938Z,13.73
2022-11-06T04:09:22.590Z,13.68
2022-11-06T04:12:09.692Z,14.52
2022-11-06T04:14:39.690Z,12.88
2022-11-06T04:17:12.323Z,14.05
2022-11-06T04:19:47.183Z,12.32
2022-11-06T04:22:44.963Z,12.73
2022-11-06T04:28:17.212Z,11.20
2022-11-06T04:31:07.462Z,11.82
2022-11-06T04:33:47.781Z,12.05
2022-11-06T04:36:21.537Z,11.95
2022-11-06T04:39:12.954Z,12.57
2022-11-06T04:41:55.592Z,11.63
2022-11-06T04:44:34.266Z,10.88
2022-11-06T04:47:12.107Z,13.15
2022-11-06T04:49:42.298Z,11.55
2022-11-06T04:52:15.029Z,11.75
2022-11-06T04:54:42.465Z,11.98
2022-11-06T04:57:10.934Z,12.00
2022-11-06T04:59:38.121Z,12.13
2022-11-06T05:02:06.358Z,11.55
2022-11-06T05:04:34.019Z,11.63
2022-11-06T05:07:01.571Z,12.32
2022-11-06T05:09:28.844Z,11.95
2022-11-06T05:11:56.526Z,13.45
2022-11-06T05:14:24.165Z,15.90
2022-11-06T05:16:51.834Z,13.85
2022-11-06T05:19:18.995Z,15.27
2022-11-06T05:22:05.134Z,15.00
2022-11-06T05:24:32.391Z,14.13
2022-11-06T05:27:00.052Z,14.52
2022-11-06T05:29:27.726Z,15.30
2022-11-06T05:31:55.333Z,15.30
2022-11-06T05:34:22.565Z,15.95
2022-11-06T05:36:49.976Z,15.35
2022-11-06T05:39:17.163Z,16.30
2022-11-06T05:41:44.631Z,14.73
2022-11-06T05:44:11.747Z,12.68
2022-11-06T05:46:54.607Z,13.75
2022-11-06T05:49:21.782Z,14.40
2022-11-06T05:51:49.319Z,13.82
2022-11-06T05:54:16.715Z,13.98
2022-11-06T05:56:44.240Z,14.02
2022-11-06T05:59:11.740Z,15.63
2022-11-06T06:01:39.468Z,13.77
2022-11-06T06:04:06.896Z,14.25
2022-11-06T06:06:34.585Z,17.00
2022-11-06T06:09:01.804Z,14.25
2022-11-06T06:11:29.667Z,14.38
2022-11-06T06:13:56.808Z,13.77
2022-11-06T06:16:24.287Z,14.30
2022-11-06T06:18:51.603Z,15.80
2022-11-06T06:21:19.097Z,14.88
2022-11-06T06:23:46.423Z,14.18
2022-11-06T06:26:13.874Z,15.48
2022-11-06T06:28:41.021Z,14.43
2022-11-06T06:31:09.419Z,16.80
2022-11-06T06:33:36.847Z,14.15
2022-11-06T06:36:05.755Z,15.02
2022-11-06T06:38:33.057Z,19.10
2022-11-06T06:41:08.226Z,17.95
2022-11-06T06:43:36.258Z,15.85
2022-11-06T06:46:06.833Z,13.82
2022-11-06T06:48:34.539Z,14.25
2022-11-06T06:51:03.293Z,12.82
2022-11-06T06:53:31.571Z,13.68
2022-11-06T06:56:00.903Z,44.30
2022-11-06T06:58:29.345Z,39.10
2022-11-06T07:01:02.441Z,16.35
2022-11-06T07:03:29.802Z,58.22
2022-11-06T07:05:58.974Z,23.27
2022-11-06T07:08:27.400Z,14.35
2022-11-06T07:11:03.523Z,16.20
2022-11-06T07:13:35.487Z,13.68
2022-11-06T07:16:08.037Z,13.18
2022-11-06T07:18:36.266Z,10.00
2022-11-06T07:21:08.559Z,11.98
2022-11-06T07:23:36.410Z,10.82
2022-11-06T07:26:05.357Z,11.07
2022-11-06T07:28:33.091Z,10.85
2022-11-06T07:31:02.013Z,129.05
2022-11-06T07:33:30.146Z,134.40
2022-11-06T07:36:03.847Z,61.10
2022-11-06T07:38:32.594Z,69.30
2022-11-06T07:41:05.728Z,112.57
2022-11-06T07:43:33.318Z,32.67
2022-11-06T07:46:06.121Z,17.30
2022-11-06T07:48:33.823Z,13.13
2022-11-06T07:51:08.911Z,49.53
2022-11-06T07:53:36.954Z,25.42
2022-11-06T07:56:04.648Z,13.27
2022-11-06T07:58:33.773Z,68.07
2022-11-06T08:01:01.421Z,12.65
2022-11-06T08:03:32.006Z,11.32
2022-11-06T08:06:03.067Z,12.05
2022-11-06T08:08:31.423Z,13.07
2022-11-06T08:11:07.629Z,15.43
2022-11-06T08:13:35.565Z,14.10
2022-11-06T08:16:13.040Z,12.52
2022-11-06T08:18:41.044Z,31.98
2022-11-06T08:21:09.077Z,10.50
2022-11-06T08:23:36.556Z,10.20
2022-11-06T08:26:07.532Z,9.50
2022-11-06T08:28:35.221Z,10.05
2022-11-06T08:31:07.282Z,9.68
2022-11-06T08:33:37.087Z,10.07
2022-11-06T08:36:06.470Z,10.98
2022-11-06T08:38:33.867Z,9.07
2022-11-06T08:41:09.566Z,9.30
2022-11-06T08:43:37.638Z,10.45
2022-11-06T08:46:06.674Z,14.27
2022-11-06T08:48:34.413Z,11.48
2022-11-06T08:51:01.998Z,8.90
2022-11-06T08:53:29.250Z,10.45
2022-11-06T08:55:56.781Z,9.40
2022-11-06T08:58:24.108Z,9.02
2022-11-06T09:00:51.971Z,10.25
2022-11-06T09:03:19.204Z,13.57
2022-11-06T09:05:46.846Z,12.00
2022-11-06T09:08:14.604Z,7.40
2022-11-06T09:10:46.040Z,7.50
2022-11-06T09:13:19.328Z,9.07
2022-11-06T09:15:47.114Z,8.02
2022-11-06T09:18:14.301Z,8.55
2022-11-06T09:20:41.927Z,9.75
2022-11-06T09:23:10.920Z,9.45
2022-11-06T09:25:39.037Z,7.97
2022-11-06T09:28:06.278Z,9.55
2022-11-06T09:30:33.730Z,19.50
2022-11-06T09:33:03.135Z,11.75
2022-11-06T09:35:33.265Z,47.92
2022-11-06T09:38:05.805Z,23.20
2022-11-06T09:40:59.007Z,11.43
2022-11-06T09:43:58.219Z,19.00
2022-11-06T09:46:23.524Z,49.17
2022-11-06T09:49:11.025Z,9.07
2022-11-06T09:51:41.539Z,8.80
2022-11-06T09:54:32.297Z,22.17
2022-11-06T09:57:10.169Z,20.30
2022-11-06T09:59:41.406Z,43.92
2022-11-06T10:02:40.320Z,17.23
2022-11-06T10:05:27.454Z,6.47
2022-11-06T10:10:46.666Z,50.42
2022-11-06T10:13:17.937Z,6.68
2022-11-06T10:16:03.135Z,8.07
2022-11-06T10:18:50.856Z,13.57
2022-11-06T10:24:15.247Z,7.13
2022-11-06T10:26:50.682Z,4.68
2022-11-06T10:29:40.541Z,5.63
2022-11-06T10:32:45.682Z,2.97
2022-11-06T10:35:20.453Z,3.67
2022-11-06T10:38:11.767Z,4.35
2022-11-06T10:40:40.049Z,4.07
2022-11-06T10:43:12.589Z,3.13
2022-11-06T10:45:43.750Z,4.35
2022-11-06T10:48:37.124Z,3.00
2022-11-06T10:54:02.998Z,3.13
2022-11-06T10:56:47.248Z,3.90
2022-11-06T10:59:16.426Z,3.63
2022-11-06T11:01:44.014Z,3.40
2022-11-06T11:04:11.350Z,3.83
2022-11-06T11:06:40.735Z,3.63
2022-11-06T11:09:27.325Z,5.07
2022-11-06T11:11:55.162Z,6.70
2022-11-06T11:14:24.939Z,9.80
2022-11-06T11:16:52.916Z,6.40
2022-11-06T11:19:41.989Z,7.05
2022-11-06T11:22:20.968Z,3.63
2022-11-06T11:25:09.109Z,3.67
2022-11-06T11:27:45.136Z,3.97
2022-11-06T11:30:26.538Z,6.68
2022-11-06T11:32:54.865Z,6.90
2022-11-06T11:35:28.712Z,7.22
2022-11-06T11:38:11.025Z,6.38
2022-11-06T11:40:39.445Z,6.57
2022-11-06T11:43:24.148Z,6.25
2022-11-06T11:46:19.094Z,4.72
2022-11-06T11:48:56.237Z,4.95
2022-11-06T11:54:15.563Z,5.20
2022-11-06T11:57:04.229Z,4.85
2022-11-06T11:59:49.198Z,4.10
2022-11-06T12:02:27.823Z,4.15
2022-11-06T12:05:07.951Z,3.25
2022-11-06T12:07:46.245Z,3.67
2022-11-06T12:10:31.925Z,3.33
2022-11-06T12:13:05.128Z,3.15
2022-11-06T12:15:44.715Z,3.08
2022-11-06T12:18:16.675Z,4.07
2022-11-06T12:21:08.910Z,3.20
2022-11-06T12:23:54.288Z,3.17
2022-11-06T12:26:53.700Z,3.47
2022-11-06T12:29:29.091Z,3.55
2022-11-06T12:32:18.104Z,3.97
2022-11-06T12:35:10.054Z,3.70
2022-11-06T12:37:50.518Z,3.78
2022-11-06T12:40:40.198Z,3.63
2022-11-06T12:43:39.096Z,3.67
2022-11-06T12:46:33.302Z,5.72
2022-11-06T12:49:38.156Z,4.65
2022-11-06T12:52:14.615Z,3.45
2022-11-06T12:54:44.806Z,3.47
2022-11-06T12:57:33.065Z,3.80
2022-11-06T13:00:06.731Z,2.90
2022-11-06T13:02:52.575Z,3.10
2022-11-06T13:05:41.373Z,5.03
2022-11-06T13:08:33.587Z,4.07
2022-11-06T13:11:15.992Z,4.20
2022-11-06T13:13:58.115Z,4.10
2022-11-06T13:16:33.828Z,5.35
2022-11-06T13:19:20.091Z,5.03
2022-11-06T13:21:59.488Z,5.40
2022-11-06T13:24:37.897Z,5.53
2022-11-06T13:27:29.835Z,6.53
2022-11-06T13:30:04.499Z,4.90
2022-11-06T13:32:34.966Z,5.18
2022-11-06T13:35:03.626Z,5.18
2022-11-06T13:37:43.917Z,4.72
2022-11-06T13:40:27.659Z,4.55
2022-11-06T13:43:12.557Z,6.90
2022-11-06T13:46:41.424Z,4.95
2022-11-06T13:49:21.001Z,4.90
2022-11-06T13:52:05.570Z,4.78
2022-11-06T13:54:38.908Z,5.15
2022-11-06T13:57:21.177Z,5.57
2022-11-06T14:00:03.002Z,5.00
2022-11-06T14:03:06.561Z,5.30
2022-11-06T14:05:45.535Z,5.78
2022-11-06T14:08:41.088Z,6.05
2022-11-06T14:11:27.144Z,5.30
2022-11-06T14:14:02.625Z,5.15
2022-11-06T14:16:34.408Z,5.80
2022-11-06T14:19:13.979Z,6.20
2022-11-06T14:21:48.720Z,6.15
2022-11-06T14:24:30.748Z,7.18
2022-11-06T14:26:59.610Z,7.53
2022-11-06T14:29:29.583Z,7.85
2022-11-06T14:32:41.299Z,10.45
2022-11-06T14:35:31.120Z,12.60
2022-11-06T14:38:35.417Z,8.20
2022-11-06T14:41:23.202Z,7.18
2022-11-06T14:43:52.758Z,8.68
2022-11-06T14:46:23.689Z,8.75
2022-11-06T14:48:54.096Z,8.55
2022-11-06T14:51:30.153Z,9.30
2022-11-06T14:54:18.369Z,9.05
2022-11-06T14:56:53.961Z,8.82
2022-11-06T14:59:28.918Z,9.45
2022-11-06T15:02:05.854Z,7.82
2022-11-06T15:04:35.088Z,9.00
2022-11-06T15:07:44.678Z,9.18
2022-11-06T15:10:44.191Z,11.10
2022-11-06T15:13:18.519Z,13.30
2022-11-06T15:15:52.822Z,11.93
2022-11-06T15:18:23.699Z,12.13
2022-11-06T15:20:55.532Z,12.60
2022-11-06T15:23:34.553Z,13.02
2022-11-06T15:26:23.225Z,13.23
2022-11-06T15:29:12.034Z,14.32
2022-11-06T15:31:40.707Z,13.93
2022-11-06T15:34:20.598Z,15.70
2022-11-06T15:36:53.620Z,16.15
2022-11-06T15:39:29.922Z,15.27
2022-11-06T15:41:57.647Z,16.40
2022-11-06T15:44:25.620Z,16.20
2022-11-06T15:46:57.417Z,17.90
2022-11-06T15:49:25.839Z,17.67
2022-11-06T15:51:53.033Z,19.42
2022-11-06T15:54:40.035Z,17.45
2022-11-06T15:57:22.675Z,20.95
2022-11-06T15:59:50.754Z,19.35
2022-11-06T16:02:22.819Z,20.77
2022-11-06T16:04:51.410Z,19.98
2022-11-06T16:07:19.552Z,20.52
2022-11-06T16:09:47.663Z,20.92
2022-11-06T16:12:17.741Z,21.80
2022-11-06T16:14:45.699Z,23.58
2022-11-06T16:17:25.687Z,23.48
2022-11-06T16:19:56.701Z,21.10
2022-11-06T16:22:32.385Z,21.55
2022-11-06T16:25:03.056Z,22.17
2022-11-06T16:27:35.112Z,21.92
2022-11-06T16:30:06.617Z,21.75
2022-11-06T16:32:43.081Z,21.20
2022-11-06T16:35:34.797Z,23.42
2022-11-06T16:38:39.841Z,23.30
2022-11-06T16:41:06.244Z,21.85
2022-11-06T16:43:33.819Z,23.75
2022-11-06T16:46:09.465Z,21.30
2022-11-06T16:48:36.735Z,23.23
2022-11-06T16:51:10.340Z,24.40
2022-11-06T16:54:02.015Z,21.73
2022-11-06T16:56:34.703Z,22.58
2022-11-06T16:59:03.759Z,24.58
2022-11-06T17:01:43.650Z,23.13
2022-11-06T17:04:22.444Z,25.50
2022-11-06T17:06:51.687Z,24.45
2022-11-06T17:09:36.005Z,24.67
2022-11-06T17:12:04.167Z,26.85
2022-11-06T17:14:33.024Z,25.48
2022-11-06T17:17:02.203Z,26.45
2022-11-06T17:19:30.218Z,29.05
2022-11-06T17:21:58.250Z,26.67
2022-11-06T17:24:41.474Z,31.20
2022-11-06T17:27:09.351Z,30.33
2022-11-06T17:29:36.920Z,29.25
2022-11-06T17:32:04.606Z,27.88
2022-11-06T17:34:31.839Z,25.63
2022-11-06T17:36:59.398Z,24.48
2022-11-06T17:39:26.600Z,20.55
2022-11-06T17:41:54.710Z,19.67
2022-11-06T17:44:22.517Z,18.75
2022-11-06T17:46:50.785Z,28.15
2022-11-06T17:49:18.913Z,25.92
2022-11-06T17:51:53.219Z,29.00
2022-11-06T17:54:23.370Z,19.13
2022-11-06T17:56:51.670Z,20.48
2022-11-06T17:59:19.246Z,22.45
2022-11-06T18:01:50.733Z,23.77
2022-11-06T18:04:19.639Z,25.05
2022-11-06T18:06:52.217Z,24.13
2022-11-06T18:09:21.156Z,24.63
2022-11-06T18:11:53.531Z,26.25
2022-11-06T18:14:21.865Z,24.98
2022-11-06T18:16:49.924Z,25.25
2022-11-06T18:19:19.899Z,23.88
2022-11-06T18:21:47.627Z,22.23
2022-11-06T18:24:15.220Z,22.77
2022-11-06T18:26:42.618Z,22.70
2022-11-06T18:29:11.753Z,24.13
2022-11-06T18:31:39.571Z,26.85
2022-11-06T18:34:07.190Z,27.58
2022-11-06T18:36:36.832Z,24.98
2022-11-06T18:39:05.714Z,27.00
2022-11-06T18:41:34.565Z,24.92
2022-11-06T18:44:01.862Z,24.80
2022-11-06T18:46:30.318Z,24.98
2022-11-06T18:48:58.344Z,26.83
2022-11-06T18:51:35.253Z,26.05
2022-11-06T18:54:09.744Z,27.92
2022-11-06T18:56:38.824Z,27.65
2022-11-06T18:59:08.693Z,25.92
2022-11-06T19:01:36.377Z,25.17
2022-11-06T19:04:04.831Z,24.23
2022-11-06T19:06:32.820Z,25.70
2022-11-06T19:09:00.183Z,23.75
2022-11-06T19:11:27.675Z,23.23
2022-11-06T19:13:55.027Z,24.65
2022-11-06T19:16:22.517Z,22.77
2022-11-06T19:21:30.527Z,24.65
2022-11-06T19:24:05.978Z,24.30
2022-11-06T19:26:35.529Z,21.08
2022-11-06T19:29:04.317Z,21.10
2022-11-06T19:31:33.242Z,20.83
2022-11-06T19:34:01.759Z,19.65
2022-11-06T19:36:31.974Z,18.58
2022-11-06T19:38:59.300Z,17.50
2022-11-06T19:41:27.967Z,19.63
2022-11-06T19:43:55.327Z,17.65
2022-11-06T19:46:27.216Z,19.90
2022-11-06T19:48:55.599Z,20.55
2022-11-06T19:51:22.825Z,16.08
2022-11-06T19:53:53.382Z,17.13
2022-11-06T19:56:21.859Z,17.92
2022-11-06T19:58:50.850Z,17.60
2022-11-06T20:01:19.625Z,18.50
2022-11-06T20:03:47.347Z,19.20
2022-11-06T20:06:15.495Z,20.75
2022-11-06T20:08:43.493Z,19.23
2022-11-06T20:11:13.645Z,21.77
2022-11-06T20:13:41.941Z,19.58
2022-11-06T20:16:12.314Z,20.45
2022-11-06T20:18:39.869Z,20.08
2022-11-06T20:21:10.760Z,20.70
2022-11-06T20:23:38.703Z,20.00
2022-11-06T20:26:06.812Z,19.38
2022-11-06T20:28:34.949Z,20.70
2022-11-06T20:31:07.007Z,24.42
2022-11-06T20:33:35.418Z,20.17
2022-11-06T20:36:14.837Z,18.20
2022-11-06T20:38:45.130Z,16.88
2022-11-06T20:41:25.011Z,17.75
2022-11-06T20:43:56.185Z,14.48
2022-11-06T20:46:24.480Z,18.02
2022-11-06T20:48:52.671Z,19.92
2022-11-06T20:51:23.595Z,17.20
2022-11-06T20:53:54.016Z,20.88
2022-11-06T20:56:24.564Z,21.95
2022-11-06T20:58:54.654Z,20.92
2022-11-06T21:01:27.220Z,23.25
2022-11-06T21:03:58.331Z,19.00
2022-11-06T21:06:27.182Z,16.45
2022-11-06T21:08:55.067Z,17.00
2022-11-06T21:11:25.040Z,17.95
2022-11-06T21:13:54.292Z,18.58
2022-11-06T21:16:30.940Z,16.25
2022-11-06T21:19:04.071Z,15.32
2022-11-06T21:21:34.141Z,15.82
2022-11-06T21:24:02.734Z,16.42
2022-11-06T21:26:32.742Z,16.80
2022-11-06T21:29:02.228Z,17.58
2022-11-06T21:31:31.040Z,17.05
2022-11-06T21:34:00.669Z,17.77
2022-11-06T21:36:31.184Z,18.35
2022-11-06T21:39:02.022Z,17.52
2022-11-06T21:41:31.170Z,18.98
2022-11-06T21:43:58.775Z,19.52
2022-11-06T21:46:26.014Z,17.85
2022-11-06T21:48:53.698Z,17.38
2022-11-06T21:51:26.977Z,15.85
2022-11-06T21:54:14.215Z,16.05
2022-11-06T21:56:42.801Z,16.75
2022-11-06T21:59:13.376Z,18.25
2022-11-06T22:01:41.317Z,19.45
2022-11-06T22:04:09.930Z,18.23
2022-11-06T22:06:41.446Z,21.73
2022-11-06T22:09:10.398Z,24.75
2022-11-06T22:11:39.919Z,26.63
2022-11-06T22:14:13.447Z,26.42
2022-11-06T22:16:43.438Z,26.33
2022-11-06T22:19:11.665Z,25.85
2022-11-06T22:21:39.917Z,28.20
2022-11-06T22:24:08.046Z,27.38
2022-11-06T22:26:36.196Z,27.92
2022-11-06T22:29:09.454Z,27.77
2022-11-06T22:31:36.657Z,26.70
2022-11-06T22:34:04.637Z,28.75
2022-11-06T22:36:32.222Z,29.08
2022-11-06T22:39:03.667Z,29.02
2022-11-06T22:41:30.927Z,29.88
2022-11-06T22:43:59.718Z,27.15
2022-11-06T22:46:28.907Z,26.98
2022-11-06T22:48:56.931Z,29.25
2022-11-06T22:51:27.064Z,28.80
2022-11-06T22:53:54.926Z,25.73
2022-11-06T22:56:23.819Z,28.17
2022-11-06T22:59:03.610Z,27.27
2022-11-06T23:01:37.240Z,26.38
2022-11-06T23:06:35.810Z,18.10
2022-11-06T23:09:03.261Z,21.63
2022-11-06T23:11:30.750Z,22.83
2022-11-06T23:14:04.638Z,19.00
2022-11-06T23:16:53.549Z,18.13
2022-11-06T23:19:21.185Z,18.80
2022-11-06T23:21:48.775Z,22.58
2022-11-06T23:24:16.116Z,24.40
2022-11-06T23:26:45.442Z,25.67
2022-11-06T23:29:12.662Z,26.23
2022-11-06T23:31:41.274Z,24.00
2022-11-06T23:34:08.888Z,26.30
2022-11-06T23:36:36.637Z,25.55
2022-11-06T23:39:03.911Z,25.40
2022-11-06T23:41:43.105Z,22.80
2022-11-06T23:44:30.336Z,23.17
2022-11-06T23:49:25.435Z,23.55
2022-11-06T23:51:53.403Z,24.15
2022-11-06T23:54:20.575Z,26.08
2022-11-06T23:56:48.192Z,24.20
2022-11-06T23:59:15.347Z,24.35
